Barksdale Air Force Base Bossier City US
ICAO: KBAD
IATA: BAD
Category: Large
Scheduled Services: No

Elevation: 166 ft
TransAlt. 18000 ft.

Airport Communications:
SHREVEPORT APP/DEP:119.9
ATIS:37.58
GND:121.8
PMSV METRO:37.362
COMD POST:31.1
PTD:37.22
TWR:128.25

KBAD Zoom In..

If Map Doesn't Load, Click Here

Runways:

(A) RW 15 length 11758 ft width 299 ft
ILS 108.90 / hdg 146

(B) RW 33 length 11758 ft width 299 ft
ILS 109.90 / hdg 326

Location; KBAD
Day. 21 / Time. 13.56 Zulu
* Altimeter: 30.02
* Temperature: 26° c. 78.8°f.
* Wind from: 140° Speed 06 kn.
Dewpoint: 26° c.
Visibility: 10 Statute Miles.
Clouds: Overcast 14000 ft.

KBAD 211356Z AUTO 14006KT 10SM OVC140 26/26 A3002 RMK AO2 SLP167 T02570257


Wind From 140°
Speed 06 kn.

 
 
jpsmedia.com for Web Design worldairports.se 2018   terms of use